Northwood, ND

2:15 PM CDT on July 28, 2015 (GMT -0500)
Larimore | | Change Station
CLOSE
Current Station
Personal Weather Station
Location: Larimore, ND
Elevation: 1125 ft
Nearby Weather Stations
Active Advisory: Wind Advisory

Elev 1125 ft 47.91 °N, 97.63 °W | Updated 9 minutes ago

Partly Cloudy
Partly Cloudy
80.1 °F
Feels Like 81 °F
N
5.8
Wind Variable Wind from South

Today
High -- | Low -- °F
--% Chance of Precip.
Yesterday
High -- | Low -- °F
Precip. -- in
6:02 AM 9:10 PM
Waxing Gibbous, 91% visible
Pressure 29.62 in
Visibility 10.0 miles
Clouds Few 4400 ft
Heat Index 81 °F
Dew Point 59 °F
Humidity 49%
Rainfall 0.00 in
Snow Depth Not available.
UV 9 out of 12
Pollen 2.80 out of 12
Air Quality Not available.
Flu Activity Not available.
METAR KRDR 281858Z AUTO 23020G30KT 10SM FEW044 24/14 A2962 RMK AO2 PK WND 22030/47 SLP031 T02430137

More Conditions Fewer Conditions

Pressure 29.62 in
Visibility 10.0 miles
Clouds Few 4400 ft
Heat Index 81 °F
Dew Point 59 °F
Humidity 49%
Rainfall 0.00 in
Snow Depth Not available.
UV 9 out of 12
Pollen 2.80 out of 12
Air Quality Not available.
Flu Activity Not available.
METAR KRDR 281858Z AUTO 23020G30KT 10SM FEW044 24/14 A2962 RMK AO2 PK WND 22030/47 SLP031 T02430137

More Conditions Fewer Conditions

10-Day Weather Forecast

×

Almanac

Astronomy

Jul. 28, 2015 Rise Set
Actual Time
Civil Twilight
Nautical Twilight
Astronomical Twilight
Moon
Length of Visible Light
Length of Day
Tomorrow will be .
, % of the Moon is Illuminated

Today's Extremes

State Highs State Lows

Community

WunderPhotos

Upload Photos

1,841,918 photos uploaded!

WunderBlogs® & News

Nearby

Air Quality

  Air Quality AQ Index Pollutant
Not available.

Snow Depth

Station Depth Elevation

Earthquake Activity

City Distance Mag. Time & Date
Minimum magnitude displayed is 2.5.

Coastal Water Temperatures

Place Temperature

Stations

Nearby Weather Stations

Station Location Temp. Windchill Dew Point Humidity Wind Precip. Elev Updated Type
                   
Wind Advisory
Statement as of 10:40 AM CDT on July 28, 2015

... Wind Advisory remains in effect from 3 PM this afternoon to
11 PM CDT this evening...

* winds... southwest 25 to 35 mph with gusts up to 50 mph.

* Timing... this afternoon through this evening.

Precautionary/preparedness actions...

A Wind Advisory means that winds of 35 mph are expected. Winds
this strong can make driving difficult... especially for high
profile vehicles. Use extra caution.